»·PEaware :: N762BB KLAS-KFLG

N762BB :: KLAS-KFLG

FLIGHT INFORMATION

Flight Status: Arrived
Operator: Privately registered:
United States
More flights under this callsign
Pilot: Slade E. (12022)
Aircraft: BEECH AIRCRAFT A90-E90 KING AIR
(BE9L)
More flights by this aircraft type
Origin: KLAS McCarran Intl
United States
Destination: KFLG Flagstaff Pulliam
United States
More flights between these airports :: More routes between these airports
Route: +BLD080 V562 PGS V291 FLG
File this flight plan on PilotEdge
Remarks:
Altitude:
(Current/Filed)
21,000ft
Speed:
(Current/Filed)
215kts
Departed: 24-Oct-20 05:42 PM
Arrived: 24-Oct-20 06:54 PM
Distance/Time
Traveled:
179nm/1:12
Distance/Time
To Go:
Arrived

Flight Plot

Page will automatically refresh every two minutes.

Flight plan parsing failed; only flown route is shown


Map Options




Map Legend


Flown Route
Filed Route
Departure Airport
Arrival Airport
Navaid (VOR, NDB)
Fix

Horizontal Profiles

Position Reports

Time Latitude Longitude Heading Altitude Ground
Speed
24-Oct-20 17:20 36.082659 -115.170029 89 2114ft 0kts
24-Oct-20 17:21 36.082659 -115.170029 89 2114ft 0kts
24-Oct-20 17:22 36.082659 -115.170029 89 2114ft 0kts
24-Oct-20 17:23 36.082659 -115.170029 89 2114ft 0kts
24-Oct-20 17:24 36.082659 -115.170029 89 2114ft 0kts
24-Oct-20 17:25 36.082659 -115.170029 89 2114ft 0kts
24-Oct-20 17:26 36.082659 -115.170029 89 2114ft 0kts
24-Oct-20 17:27 36.082659 -115.170029 89 2114ft 0kts
24-Oct-20 17:28 36.082659 -115.170029 89 2114ft 0kts
24-Oct-20 17:29 36.082659 -115.170029 89 2114ft 0kts
24-Oct-20 17:29 36.082659 -115.170029 89 2114ft 0kts
24-Oct-20 17:31 36.082659 -115.170029 88 2114ft 0kts
24-Oct-20 17:31 36.082659 -115.170029 89 2114ft 0kts
24-Oct-20 17:33 36.082659 -115.170029 89 2114ft 0kts
24-Oct-20 17:33 36.082659 -115.170029 89 2114ft 0kts
24-Oct-20 17:35 36.082659 -115.170029 89 2114ft 0kts
24-Oct-20 17:35 36.082659 -115.170029 89 2114ft 0kts
24-Oct-20 17:36 36.082659 -115.170029 89 2114ft 0kts
24-Oct-20 17:37 36.083378 -115.168691 25 2114ft 15kts
24-Oct-20 17:38 36.086861 -115.166167 25 2114ft 17kts
24-Oct-20 17:39 36.092648 -115.162835 26 2114ft 25kts
24-Oct-20 17:40 36.099143 -115.159117 30 2114ft 18kts
24-Oct-20 17:41 36.096333 -115.158362 204 2115ft 84kts
24-Oct-20 17:42 36.064323 -115.176011 204 3243ft 135kts
24-Oct-20 17:43 36.030523 -115.196144 205 4738ft 136kts
24-Oct-20 17:44 35.995014 -115.214156 202 6085ft 140kts
24-Oct-20 17:45 35.959451 -115.234479 207 7324ft 143kts
24-Oct-20 17:46 35.924346 -115.257833 203 8460ft 145kts
24-Oct-20 17:47 35.890810 -115.253412 97 9308ft 156kts
24-Oct-20 17:48 35.887049 -115.202996 93 10763ft 147kts
24-Oct-20 17:49 35.883276 -115.151778 92 12287ft 145kts
24-Oct-20 17:50 35.879324 -115.098947 98 13414ft 158kts
24-Oct-20 17:51 35.872046 -115.045110 100 14474ft 161kts
24-Oct-20 17:52 35.863514 -114.989289 100 15154ft 181kts
24-Oct-20 17:53 35.852904 -114.922252 101 15150ft 211kts
24-Oct-20 17:54 35.841221 -114.849077 101 15147ft 222kts
24-Oct-20 17:55 35.829180 -114.774033 101 15146ft 225kts
24-Oct-20 17:56 35.816920 -114.697961 101 15146ft 226kts
24-Oct-20 17:57 35.804796 -114.623002 101 15439ft 213kts
24-Oct-20 17:58 35.793764 -114.555033 101 16209ft 194kts
24-Oct-20 17:59 35.783345 -114.491127 101 16868ft 190kts
24-Oct-20 18:00 35.772829 -114.426887 101 17456ft 192kts
24-Oct-20 18:01 35.762213 -114.362247 101 17991ft 194kts
24-Oct-20 18:02 35.751668 -114.298221 101 18695ft 187kts
24-Oct-20 18:03 35.741456 -114.236433 101 19483ft 181kts
24-Oct-20 18:04 35.731561 -114.176759 101 20268ft 174kts
24-Oct-20 18:05 35.722021 -114.119420 101 20986ft 172kts
24-Oct-20 18:06 35.711474 -114.056342 101 21005ft 202kts
24-Oct-20 18:07 35.699682 -113.986021 101 21002ft 215kts
24-Oct-20 18:08 35.687330 -113.912608 101 21000ft 221kts
24-Oct-20 18:09 35.674752 -113.838132 101 21000ft 224kts
24-Oct-20 18:10 35.662033 -113.763122 101 21000ft 224kts
24-Oct-20 18:11 35.649139 -113.687399 101 21001ft 228kts
24-Oct-20 18:12 35.636651 -113.614343 101 21000ft 231kts
24-Oct-20 18:13 35.622496 -113.536831 105 21000ft 233kts
24-Oct-20 18:14 35.603922 -113.460466 106 21000ft 233kts
24-Oct-20 18:15 35.585089 -113.384189 106 21000ft 233kts
24-Oct-20 18:16 35.566118 -113.307687 107 21000ft 234kts
24-Oct-20 18:17 35.547112 -113.231290 107 21000ft 234kts
24-Oct-20 18:18 35.542753 -113.213802 107 21000ft 234kts
24-Oct-20 18:19 35.525086 -113.143045 107 21000ft 234kts
24-Oct-20 18:20 35.505970 -113.066699 107 20999ft 234kts
24-Oct-20 18:21 35.486784 -112.990313 107 21000ft 234kts
24-Oct-20 18:22 35.467604 -112.914168 107 21000ft 234kts
24-Oct-20 18:23 35.448298 -112.837757 107 21000ft 234kts
24-Oct-20 18:24 35.428998 -112.761589 107 21000ft 234kts
24-Oct-20 18:25 35.409612 -112.685313 107 21000ft 234kts
24-Oct-20 18:26 35.397076 -112.636109 107 21000ft 234kts
24-Oct-20 18:27 35.377652 -112.560051 107 21000ft 234kts
24-Oct-20 18:28 35.357871 -112.482857 107 20564ft 245kts
24-Oct-20 18:29 35.337074 -112.401919 107 19571ft 251kts
24-Oct-20 18:30 35.315986 -112.320127 107 18577ft 253kts
24-Oct-20 18:31 35.294684 -112.237769 107 17580ft 254kts
24-Oct-20 18:32 35.273331 -112.155343 107 16584ft 254kts
24-Oct-20 18:33 35.251844 -112.072785 107 15586ft 254kts
24-Oct-20 18:34 35.231351 -111.994223 107 14566ft 234kts
24-Oct-20 18:35 35.211858 -111.919845 107 13562ft 227kts
24-Oct-20 18:36 35.192720 -111.846921 107 12558ft 222kts
24-Oct-20 18:37 35.174137 -111.776283 107 11850ft 207kts
24-Oct-20 18:38 35.157810 -111.714338 107 11849ft 179kts
24-Oct-20 18:39 35.161248 -111.661021 47 11855ft 165kts
24-Oct-20 18:40 35.192435 -111.620617 46 11852ft 161kts
24-Oct-20 18:41 35.223008 -111.581170 46 11853ft 159kts
24-Oct-20 18:42 35.253214 -111.542192 46 11853ft 158kts
24-Oct-20 18:43 35.275709 -111.498680 88 11858ft 155kts
24-Oct-20 18:44 35.284424 -111.450167 18 11859ft 150kts
24-Oct-20 18:45 35.298740 -111.481522 240 11787ft 139kts
24-Oct-20 18:46 35.273926 -111.516921 222 11010ft 136kts
24-Oct-20 18:47 35.247371 -111.544813 221 10205ft 114kts
24-Oct-20 18:48 35.224850 -111.570520 223 9318ft 110kts
24-Oct-20 18:49 35.203444 -111.595593 223 8584ft 101kts
24-Oct-20 18:50 35.184538 -111.619856 224 8117ft 97kts
24-Oct-20 18:51 35.163935 -111.643290 222 7724ft 105kts
24-Oct-20 18:52 35.143316 -111.666069 220 7024ft 87kts
24-Oct-20 18:53 35.139386 -111.671884 260 7014ft 0kts
24-Oct-20 18:54 35.137003 -111.674528 220 7014ft 20kts
24-Oct-20 18:55 35.136242 -111.676682 67 7014ft 0kts
24-Oct-20 18:56 35.136242 -111.676682 67 7014ft 0kts
24-Oct-20 18:57 35.136242 -111.676682 67 7014ft 0kts
24-Oct-20 18:58 35.136242 -111.676682 67 7014ft 0kts
24-Oct-20 18:59 35.136242 -111.676682 67 7014ft 0kts
24-Oct-20 19:00 35.136242 -111.676682 67 7014ft 0kts
24-Oct-20 19:01 35.136242 -111.676682 67 7014ft 0kts
24-Oct-20 19:02 35.136242 -111.676682 67 7014ft 0kts
24-Oct-20 19:04 35.136242 -111.676682 67 7014ft 0kts
24-Oct-20 19:05 35.136242 -111.676682 67 7014ft 0kts
24-Oct-20 19:06 35.136242 -111.676682 67 7014ft 0kts
24-Oct-20 19:07 35.136242 -111.676682 67 7014ft 0kts
24-Oct-20 19:08 35.136242 -111.676682 67 7014ft 0kts

Navigation Log

Ident Type
Flight plan parsing failed, navigation log unavailable